createdAt,value
2023-05-12T00:00:21.469Z,4.18
2023-05-12T00:02:48.852Z,3.92
2023-05-12T00:05:16.109Z,4.75
2023-05-12T00:07:45.702Z,4.05
2023-05-12T00:10:12.805Z,3.80
2023-05-12T00:12:40.200Z,4.05
2023-05-12T00:15:08.269Z,4.00
2023-05-12T00:17:35.321Z,3.92
2023-05-12T00:20:02.722Z,4.30
2023-05-12T00:22:31.354Z,4.22
2023-05-12T00:24:58.521Z,3.88
2023-05-12T00:27:25.685Z,3.50
2023-05-12T00:29:52.676Z,4.00
2023-05-12T00:32:19.768Z,3.60
2023-05-12T00:34:46.824Z,4.15
2023-05-12T00:37:13.895Z,4.07
2023-05-12T00:39:40.964Z,4.07
2023-05-12T00:42:08.154Z,3.78
2023-05-12T00:44:35.331Z,4.13
2023-05-12T00:47:04.663Z,3.85
2023-05-12T00:49:32.462Z,4.30
2023-05-12T00:51:59.868Z,3.92
2023-05-12T00:54:28.126Z,4.22
2023-05-12T00:56:55.825Z,4.50
2023-05-12T00:59:22.888Z,4.13
2023-05-12T01:01:50.419Z,5.07
2023-05-12T01:04:17.706Z,4.82
2023-05-12T01:07:01.086Z,4.32
2023-05-12T01:09:28.241Z,4.60
2023-05-12T01:11:55.510Z,5.07
2023-05-12T01:14:22.580Z,4.43
2023-05-12T01:16:56.151Z,4.55
2023-05-12T01:19:53.887Z,4.72
2023-05-12T01:22:21.281Z,5.13
2023-05-12T01:24:58.130Z,5.15
2023-05-12T01:27:27.440Z,5.00
2023-05-12T01:29:58.245Z,4.88
2023-05-12T01:32:25.532Z,5.18
2023-05-12T01:34:52.952Z,5.25
2023-05-12T01:37:19.996Z,5.72
2023-05-12T01:39:47.101Z,4.90
2023-05-12T01:42:14.503Z,5.57
2023-05-12T01:44:41.553Z,5.88
2023-05-12T01:47:11.178Z,5.78
2023-05-12T01:49:38.592Z,5.22
2023-05-12T01:52:06.436Z,6.15
2023-05-12T01:54:33.440Z,6.82
2023-05-12T01:57:00.838Z,6.45
2023-05-12T01:59:28.552Z,7.10
2023-05-12T02:01:55.610Z,7.38
2023-05-12T02:04:22.851Z,8.02
2023-05-12T02:06:49.872Z,7.70
2023-05-12T02:09:16.869Z,8.38
2023-05-12T02:11:43.833Z,8.23
2023-05-12T02:14:10.933Z,7.82
2023-05-12T02:16:38.119Z,8.90
2023-05-12T02:19:05.300Z,8.02
2023-05-12T02:21:32.943Z,8.73
2023-05-12T02:24:00.226Z,7.78
2023-05-12T02:26:27.328Z,8.25
2023-05-12T02:28:55.203Z,8.02
2023-05-12T02:31:22.218Z,8.10
2023-05-12T02:33:50.797Z,8.75
2023-05-12T02:36:17.794Z,8.52
2023-05-12T02:38:44.825Z,8.77
2023-05-12T02:41:11.904Z,8.98
2023-05-12T02:43:39.222Z,8.35
2023-05-12T02:46:06.311Z,9.95
2023-05-12T02:48:33.384Z,9.52
2023-05-12T02:51:00.486Z,9.70
2023-05-12T02:53:27.596Z,11.10
2023-05-12T02:55:54.680Z,10.00
2023-05-12T02:58:22.454Z,10.57
2023-05-12T03:00:56.914Z,10.98
2023-05-12T03:03:30.428Z,10.25
2023-05-12T03:05:57.538Z,9.60
2023-05-12T03:08:24.632Z,10.45
2023-05-12T03:10:52.693Z,10.55
2023-05-12T03:13:19.688Z,9.68
2023-05-12T03:15:46.782Z,9.90
2023-05-12T03:18:13.852Z,9.93
2023-05-12T03:20:40.983Z,10.05
2023-05-12T03:23:10.555Z,9.88
2023-05-12T03:25:37.606Z,9.68
2023-05-12T03:28:05.550Z,9.52
2023-05-12T03:30:33.240Z,9.05
2023-05-12T03:33:00.393Z,9.80
2023-05-12T03:35:27.530Z,8.70
2023-05-12T03:37:54.564Z,9.15
2023-05-12T03:40:21.702Z,8.60
2023-05-12T03:42:48.943Z,8.50
2023-05-12T03:45:16.489Z,8.32
2023-05-12T03:47:43.664Z,9.20
2023-05-12T03:50:11.271Z,8.93
2023-05-12T03:52:41.126Z,8.75
2023-05-12T03:55:09.181Z,8.93
2023-05-12T03:57:37.712Z,8.98
2023-05-12T04:00:06.276Z,8.95
2023-05-12T04:02:33.494Z,8.77
2023-05-12T04:05:00.634Z,8.13
2023-05-12T04:07:27.719Z,8.07
2023-05-12T04:09:54.722Z,8.57
2023-05-12T04:12:21.790Z,9.30
2023-05-12T04:14:49.236Z,9.07
2023-05-12T04:17:19.086Z,8.88
2023-05-12T04:19:46.747Z,8.73
2023-05-12T04:22:13.924Z,9.07
2023-05-12T04:24:40.933Z,8.73
2023-05-12T04:27:07.971Z,9.18
2023-05-12T04:29:35.631Z,8.65
2023-05-12T04:32:02.704Z,9.57
2023-05-12T04:34:29.813Z,9.80
2023-05-12T04:36:56.900Z,9.23
2023-05-12T04:39:23.939Z,8.82
2023-05-12T04:41:50.946Z,8.95
2023-05-12T04:44:18.026Z,9.43
2023-05-12T04:46:45.035Z,9.73
2023-05-12T04:49:12.124Z,8.95
2023-05-12T04:51:44.447Z,9.45
2023-05-12T04:54:11.608Z,9.13
2023-05-12T04:56:38.622Z,8.68
2023-05-12T04:59:06.589Z,9.63
2023-05-12T05:01:33.706Z,8.32
2023-05-12T05:04:00.866Z,8.80
2023-05-12T05:06:28.344Z,9.23
2023-05-12T05:08:56.016Z,8.85
2023-05-12T05:11:23.754Z,8.10
2023-05-12T05:13:50.808Z,8.63
2023-05-12T05:16:18.022Z,8.68
2023-05-12T05:18:47.913Z,8.95
2023-05-12T05:21:15.206Z,7.75
2023-05-12T05:23:42.628Z,8.30
2023-05-12T05:26:10.483Z,8.25
2023-05-12T05:28:39.945Z,8.40
2023-05-12T05:31:07.614Z,7.03
2023-05-12T05:33:34.815Z,8.02
2023-05-12T05:36:02.405Z,8.15
2023-05-12T05:38:29.466Z,7.20
2023-05-12T05:40:56.597Z,6.90
2023-05-12T05:43:23.793Z,6.95
2023-05-12T05:45:51.623Z,6.93
2023-05-12T05:48:19.608Z,6.65
2023-05-12T05:50:46.744Z,6.63
2023-05-12T05:53:13.857Z,8.75
2023-05-12T05:55:40.915Z,6.82
2023-05-12T05:58:08.615Z,6.43
2023-05-12T06:00:36.165Z,7.07
2023-05-12T06:03:06.088Z,6.82
2023-05-12T06:05:33.375Z,6.10
2023-05-12T06:08:00.384Z,6.85
2023-05-12T06:10:27.625Z,6.70
2023-05-12T06:12:54.640Z,6.30
2023-05-12T06:15:22.387Z,6.82
2023-05-12T06:17:49.700Z,6.63
2023-05-12T06:20:16.961Z,6.57
2023-05-12T06:22:44.420Z,7.43
2023-05-12T06:25:11.581Z,7.13
2023-05-12T06:27:38.679Z,6.35
2023-05-12T06:30:06.613Z,6.95
2023-05-12T06:32:33.918Z,6.70
2023-05-12T06:35:01.118Z,6.68
2023-05-12T06:37:28.133Z,7.13
2023-05-12T06:39:55.171Z,7.07
2023-05-12T06:42:22.194Z,6.70
2023-05-12T06:44:49.245Z,6.10
2023-05-12T06:47:16.386Z,6.65
2023-05-12T06:49:43.482Z,6.60
2023-05-12T06:52:10.478Z,6.72
2023-05-12T06:54:37.470Z,6.78
2023-05-12T06:57:05.193Z,6.50
2023-05-12T06:59:32.239Z,5.80
2023-05-12T07:01:59.446Z,5.78
2023-05-12T07:04:26.939Z,6.25
2023-05-12T07:06:54.127Z,6.47
2023-05-12T07:09:21.164Z,6.65
2023-05-12T07:11:48.600Z,5.78
2023-05-12T07:14:15.666Z,5.90
2023-05-12T07:16:42.673Z,5.43
2023-05-12T07:19:09.794Z,5.50
2023-05-12T07:21:37.369Z,5.63
2023-05-12T07:24:06.352Z,5.68
2023-05-12T07:26:33.696Z,6.35
2023-05-12T07:29:01.385Z,5.38
2023-05-12T07:31:28.898Z,6.00
2023-05-12T07:33:56.555Z,5.07
2023-05-12T07:36:23.620Z,5.55
2023-05-12T07:38:50.855Z,6.20
2023-05-12T07:41:18.137Z,6.00
2023-05-12T07:43:46.208Z,6.18
2023-05-12T07:46:13.390Z,5.88
2023-05-12T07:48:40.655Z,6.47
2023-05-12T07:51:08.661Z,6.38
2023-05-12T07:53:36.329Z,6.78
2023-05-12T07:56:03.533Z,7.07
2023-05-12T07:58:30.584Z,6.68
2023-05-12T08:01:00.318Z,6.50
2023-05-12T08:03:27.561Z,6.72
2023-05-12T08:05:54.671Z,6.38
2023-05-12T08:08:21.806Z,6.18
2023-05-12T08:10:48.805Z,6.28
2023-05-12T08:13:15.935Z,6.50
2023-05-12T08:15:42.949Z,6.35
2023-05-12T08:18:10.082Z,6.53
2023-05-12T08:20:37.228Z,7.40
2023-05-12T08:23:04.301Z,6.32
2023-05-12T08:25:31.598Z,7.20
2023-05-12T08:27:59.812Z,6.63
2023-05-12T08:30:27.809Z,6.78
2023-05-12T08:32:56.670Z,6.70
2023-05-12T08:35:27.471Z,6.20
2023-05-12T08:37:54.742Z,6.97
2023-05-12T08:40:24.175Z,6.05
2023-05-12T08:43:26.278Z,6.20
2023-05-12T08:46:00.199Z,5.70
2023-05-12T08:48:29.330Z,5.82
2023-05-12T08:50:57.939Z,5.60
2023-05-12T08:53:28.072Z,5.28
2023-05-12T08:57:09.671Z,6.72
2023-05-12T08:58:46.587Z,6.80
2023-05-12T09:01:15.003Z,6.25
2023-05-12T09:03:42.398Z,5.80
2023-05-12T09:06:11.503Z,6.35
2023-05-12T09:08:39.274Z,6.82
2023-05-12T09:11:06.830Z,8.65
2023-05-12T09:14:01.641Z,5.95
2023-05-12T09:16:33.097Z,6.55
2023-05-12T09:19:03.533Z,6.88
2023-05-12T09:21:31.782Z,6.72
2023-05-12T09:24:09.160Z,6.78
2023-05-12T09:26:54.113Z,7.57
2023-05-12T09:29:31.459Z,7.68
2023-05-12T09:32:02.783Z,6.85
2023-05-12T09:34:38.764Z,7.88
2023-05-12T09:37:07.921Z,7.53
2023-05-12T09:39:36.364Z,9.88
2023-05-12T09:42:03.624Z,8.20
2023-05-12T09:44:32.558Z,9.43
2023-05-12T09:47:10.616Z,9.05
2023-05-12T09:49:38.411Z,10.05
2023-05-12T09:52:09.152Z,9.75
2023-05-12T09:54:40.050Z,12.10
2023-05-12T09:57:10.001Z,9.90
2023-05-12T09:59:38.987Z,9.93
2023-05-12T10:02:09.938Z,9.50
2023-05-12T10:04:50.474Z,8.63
2023-05-12T10:07:22.677Z,7.90
2023-05-12T10:09:50.468Z,8.30
2023-05-12T10:12:17.711Z,7.68
2023-05-12T10:14:46.018Z,9.10
2023-05-12T10:17:13.305Z,8.32
2023-05-12T10:19:42.204Z,6.60
2023-05-12T10:22:11.507Z,7.15
2023-05-12T10:24:40.828Z,7.15
2023-05-12T10:27:08.777Z,6.80
2023-05-12T10:29:40.754Z,7.72
2023-05-12T10:32:07.998Z,8.00
2023-05-12T10:34:41.947Z,9.23
2023-05-12T10:37:11.580Z,8.38
2023-05-12T10:39:48.419Z,7.95
2023-05-12T10:42:25.961Z,8.75
2023-05-12T10:44:56.764Z,7.85
2023-05-12T10:47:37.977Z,8.43
2023-05-12T10:50:05.720Z,7.82
2023-05-12T10:52:33.462Z,9.35
2023-05-12T10:55:03.256Z,8.95
2023-05-12T10:57:32.350Z,8.75
2023-05-12T11:00:01.762Z,8.30
2023-05-12T11:02:33.797Z,7.72
2023-05-12T11:05:05.240Z,7.70
2023-05-12T11:07:35.382Z,7.57
2023-05-12T11:10:05.931Z,5.88
2023-05-12T11:12:38.098Z,5.47
2023-05-12T11:15:07.162Z,5.47
2023-05-12T11:17:39.878Z,5.60
2023-05-12T11:20:09.877Z,6.43
2023-05-12T11:22:40.815Z,5.72
2023-05-12T11:25:12.511Z,5.93
2023-05-12T11:27:45.776Z,5.28
2023-05-12T11:30:13.628Z,5.53
2023-05-12T11:32:41.194Z,5.03
2023-05-12T11:35:19.608Z,5.13
2023-05-12T11:37:47.231Z,5.63
2023-05-12T11:40:21.931Z,5.32
2023-05-12T11:42:55.759Z,5.45
2023-05-12T11:45:29.210Z,5.00
2023-05-12T11:48:11.440Z,5.22
2023-05-12T11:50:41.298Z,5.47
2023-05-12T11:53:18.653Z,5.43
2023-05-12T11:55:55.031Z,5.90
2023-05-12T11:58:30.555Z,4.63
2023-05-12T12:03:49.891Z,5.32
2023-05-12T12:06:20.265Z,5.13
2023-05-12T12:08:55.199Z,6.00
2023-05-12T12:11:24.440Z,5.30
2023-05-12T12:13:56.685Z,5.90
2023-05-12T12:16:25.615Z,5.68
2023-05-12T12:18:53.546Z,5.45
2023-05-12T12:21:22.008Z,5.55
2023-05-12T12:23:51.767Z,6.78
2023-05-12T12:26:21.039Z,5.93
2023-05-12T12:28:49.015Z,6.57
2023-05-12T12:31:16.924Z,6.05
2023-05-12T12:33:44.017Z,7.18
2023-05-12T12:36:11.121Z,7.30
2023-05-12T12:38:38.162Z,7.38
2023-05-12T12:41:07.016Z,6.88
2023-05-12T12:43:34.336Z,7.38
2023-05-12T12:46:01.385Z,6.28
2023-05-12T12:48:28.906Z,6.68
2023-05-12T12:50:56.272Z,7.53
2023-05-12T12:53:23.712Z,6.15
2023-05-12T12:55:51.198Z,6.32
2023-05-12T12:58:18.317Z,5.63
2023-05-12T13:00:45.430Z,6.38
2023-05-12T13:03:12.729Z,6.15
2023-05-12T13:05:39.838Z,5.97
2023-05-12T13:08:07.257Z,6.05
2023-05-12T13:10:35.012Z,5.95
2023-05-12T13:13:02.077Z,5.85
2023-05-12T13:15:29.497Z,5.85
2023-05-12T13:17:56.655Z,5.78
2023-05-12T13:20:23.860Z,6.38
2023-05-12T13:22:50.978Z,6.53
2023-05-12T13:25:18.078Z,6.32
2023-05-12T13:27:45.346Z,6.72
2023-05-12T13:30:13.921Z,6.45
2023-05-12T13:32:41.475Z,7.13
2023-05-12T13:35:09.387Z,6.25
2023-05-12T13:37:37.452Z,6.32
2023-05-12T13:40:08.097Z,5.78
2023-05-12T13:42:35.272Z,5.70
2023-05-12T13:45:02.366Z,5.95
2023-05-12T13:47:29.433Z,6.72
2023-05-12T13:49:57.316Z,6.35
2023-05-12T13:52:24.385Z,5.72
2023-05-12T13:54:51.925Z,6.32
2023-05-12T13:57:18.944Z,6.40
2023-05-12T13:59:46.018Z,6.25
2023-05-12T14:02:14.446Z,7.22
2023-05-12T14:04:41.515Z,6.93
2023-05-12T14:07:08.945Z,6.45
2023-05-12T14:09:36.100Z,6.55
2023-05-12T14:12:05.179Z,7.60
2023-05-12T14:14:32.217Z,8.35
2023-05-12T14:16:59.729Z,9.63
2023-05-12T14:19:26.720Z,8.82
2023-05-12T14:21:53.749Z,7.70
2023-05-12T14:24:21.186Z,8.05
2023-05-12T14:26:51.054Z,7.57
2023-05-12T14:29:18.129Z,8.63
2023-05-12T14:31:45.184Z,7.57
2023-05-12T14:34:13.785Z,8.32
2023-05-12T14:36:41.063Z,8.77
2023-05-12T14:39:08.882Z,8.18
2023-05-12T14:41:36.032Z,7.28
2023-05-12T14:44:03.104Z,7.05
2023-05-12T14:46:30.513Z,7.55
2023-05-12T14:48:57.857Z,7.28
2023-05-12T14:51:25.166Z,6.57
2023-05-12T14:53:52.208Z,7.40
2023-05-12T14:56:19.247Z,7.00
2023-05-12T14:58:46.330Z,7.13
2023-05-12T15:01:13.459Z,6.53
2023-05-12T15:03:40.529Z,5.63
2023-05-12T15:06:08.087Z,6.63
2023-05-12T15:08:35.526Z,6.45
2023-05-12T15:11:02.643Z,6.65
2023-05-12T15:13:29.815Z,6.68
2023-05-12T15:15:57.184Z,6.60
2023-05-12T15:18:24.517Z,6.45
2023-05-12T15:20:51.947Z,6.45
2023-05-12T15:23:19.056Z,7.35
2023-05-12T15:25:46.070Z,7.32
2023-05-12T15:28:13.082Z,7.22
2023-05-12T15:30:40.215Z,6.57
2023-05-12T15:33:07.450Z,6.97
2023-05-12T15:35:34.765Z,8.50
2023-05-12T15:38:01.904Z,7.93
2023-05-12T15:40:30.837Z,7.72
2023-05-12T15:42:58.316Z,7.68
2023-05-12T15:45:25.448Z,8.18
2023-05-12T15:47:52.536Z,8.77
2023-05-12T15:50:22.982Z,9.00
2023-05-12T15:52:50.419Z,9.05
2023-05-12T15:55:17.653Z,8.70
2023-05-12T15:57:44.948Z,9.25
2023-05-12T16:00:12.999Z,8.82
2023-05-12T16:02:41.050Z,9.40
2023-05-12T16:05:09.714Z,9.52
2023-05-12T16:07:37.037Z,9.70
2023-05-12T16:10:05.263Z,9.68
2023-05-12T16:12:32.351Z,10.73
2023-05-12T16:14:59.500Z,10.15
2023-05-12T16:17:27.721Z,9.45
2023-05-12T16:19:56.840Z,8.70
2023-05-12T16:22:23.973Z,7.78
2023-05-12T16:24:51.044Z,7.30
2023-05-12T16:27:19.295Z,7.15
2023-05-12T16:29:49.451Z,7.10
2023-05-12T16:32:17.527Z,6.28
2023-05-12T16:34:44.944Z,7.05
2023-05-12T16:37:12.504Z,6.63
2023-05-12T16:39:39.887Z,6.57
2023-05-12T16:42:07.528Z,7.53
2023-05-12T16:44:34.751Z,6.97
2023-05-12T16:47:02.202Z,7.70
2023-05-12T16:49:29.606Z,6.95
2023-05-12T16:51:56.969Z,7.20
2023-05-12T16:54:24.454Z,8.07
2023-05-12T16:56:51.933Z,7.82
2023-05-12T16:59:19.334Z,8.32
2023-05-12T17:01:47.423Z,8.13
2023-05-12T17:04:15.808Z,7.60
2023-05-12T17:06:43.601Z,7.90
2023-05-12T17:09:11.024Z,8.73
2023-05-12T17:11:38.550Z,8.63
2023-05-12T17:14:06.241Z,9.63
2023-05-12T17:16:34.227Z,9.90
2023-05-12T17:21:34.210Z,10.63
2023-05-12T17:24:05.535Z,11.25
2023-05-12T17:26:33.598Z,10.32
2023-05-12T17:29:02.455Z,9.48
2023-05-12T17:31:30.359Z,9.52
2023-05-12T17:33:58.427Z,9.75
2023-05-12T17:36:26.417Z,9.73
2023-05-12T17:38:54.931Z,8.02
2023-05-12T17:41:23.015Z,7.85
2023-05-12T17:43:51.026Z,8.65
2023-05-12T17:46:18.943Z,8.63
2023-05-12T17:48:46.883Z,9.00
2023-05-12T17:51:14.828Z,8.30
2023-05-12T17:53:42.908Z,8.05
2023-05-12T17:56:11.017Z,7.75
2023-05-12T17:58:39.121Z,7.63
2023-05-12T18:01:07.275Z,7.93
2023-05-12T18:03:36.214Z,8.75
2023-05-12T18:06:06.194Z,8.13
2023-05-12T18:08:34.208Z,9.25
2023-05-12T18:11:02.347Z,7.53
2023-05-12T18:13:30.396Z,8.05
2023-05-12T18:15:58.433Z,8.00
2023-05-12T18:18:26.899Z,8.25
2023-05-12T18:20:55.194Z,7.53
2023-05-12T18:23:23.281Z,8.45
2023-05-12T18:25:51.755Z,7.97
2023-05-12T18:28:19.746Z,7.50
2023-05-12T18:30:47.990Z,7.75
2023-05-12T18:33:16.055Z,7.13
2023-05-12T18:35:44.184Z,7.63
2023-05-12T18:38:12.203Z,8.30
2023-05-12T18:40:40.315Z,8.60
2023-05-12T18:43:08.431Z,7.65
2023-05-12T18:45:38.155Z,8.10
2023-05-12T18:48:06.411Z,8.07
2023-05-12T18:50:34.509Z,8.90
2023-05-12T18:53:02.612Z,8.55
2023-05-12T18:55:30.755Z,9.25
2023-05-12T18:57:58.771Z,9.55
2023-05-12T19:00:29.837Z,9.63
2023-05-12T19:02:58.678Z,10.40
2023-05-12T19:05:26.896Z,10.50
2023-05-12T19:07:55.012Z,10.85
2023-05-12T19:10:23.055Z,10.23
2023-05-12T19:12:51.655Z,10.80
2023-05-12T19:15:21.978Z,10.90
2023-05-12T19:17:50.774Z,11.13
2023-05-12T19:20:18.960Z,10.65
2023-05-12T19:22:49.500Z,12.05
2023-05-12T19:25:20.884Z,12.18
2023-05-12T19:27:49.066Z,11.77
2023-05-12T19:30:17.967Z,13.25
2023-05-12T19:32:46.705Z,11.50
2023-05-12T19:35:16.201Z,11.80
2023-05-12T19:37:45.438Z,12.23
2023-05-12T19:40:13.724Z,11.10
2023-05-12T19:42:42.929Z,10.63
2023-05-12T19:45:11.544Z,10.15
2023-05-12T19:47:39.801Z,10.05
2023-05-12T19:50:09.158Z,10.40
2023-05-12T19:52:37.895Z,10.48
2023-05-12T19:55:08.281Z,10.13
2023-05-12T19:57:36.927Z,10.00
2023-05-12T20:00:06.184Z,9.65
2023-05-12T20:02:34.320Z,9.93
2023-05-12T20:05:03.784Z,10.15
2023-05-12T20:07:31.918Z,9.90
2023-05-12T20:10:01.621Z,10.32
2023-05-12T20:12:29.660Z,10.20
2023-05-12T20:14:57.723Z,10.45
2023-05-12T20:17:25.773Z,11.18
2023-05-12T20:19:53.640Z,11.02
2023-05-12T20:22:22.608Z,11.55
2023-05-12T20:24:51.185Z,12.25
2023-05-12T20:27:20.200Z,12.52
2023-05-12T20:29:48.078Z,11.98
2023-05-12T20:32:15.920Z,13.20
2023-05-12T20:34:44.381Z,11.52
2023-05-12T20:37:12.247Z,12.60
2023-05-12T20:39:40.302Z,12.25
2023-05-12T20:42:11.440Z,11.55
2023-05-12T20:44:39.329Z,11.90
2023-05-12T20:47:07.397Z,11.75
2023-05-12T20:49:35.155Z,10.20
2023-05-12T20:52:03.086Z,10.52
2023-05-12T20:54:30.808Z,11.35
2023-05-12T20:56:58.602Z,10.13
2023-05-12T20:59:25.927Z,10.15
2023-05-12T21:01:53.041Z,10.93
2023-05-12T21:04:20.220Z,10.30
2023-05-12T21:06:47.479Z,10.45
2023-05-12T21:09:14.924Z,9.98
2023-05-12T21:11:41.923Z,10.40
2023-05-12T21:14:08.990Z,9.88
2023-05-12T21:16:36.054Z,9.35
2023-05-12T21:19:03.214Z,9.98
2023-05-12T21:21:30.292Z,10.27
2023-05-12T21:23:57.285Z,9.57
2023-05-12T21:26:26.555Z,10.15
2023-05-12T21:28:53.701Z,10.75
2023-05-12T21:31:20.737Z,9.88
2023-05-12T21:33:48.190Z,9.90
2023-05-12T21:36:15.307Z,10.63
2023-05-12T21:38:42.769Z,11.43
2023-05-12T21:41:09.834Z,9.77
2023-05-12T21:43:36.917Z,11.30
2023-05-12T21:46:04.901Z,10.45
2023-05-12T21:48:33.406Z,10.73
2023-05-12T21:51:02.731Z,11.55
2023-05-12T21:53:30.045Z,11.93
2023-05-12T21:55:57.124Z,11.50
2023-05-12T21:58:24.377Z,10.07
2023-05-12T22:00:52.413Z,11.45
2023-05-12T22:03:24.897Z,11.15
2023-05-12T22:05:52.304Z,11.15
2023-05-12T22:08:19.983Z,10.48
2023-05-12T22:10:47.374Z,12.00
2023-05-12T22:13:14.744Z,11.60
2023-05-12T22:15:41.969Z,11.63
2023-05-12T22:18:09.113Z,11.57
2023-05-12T22:20:36.252Z,11.75
2023-05-12T22:23:03.595Z,11.57
2023-05-12T22:25:30.652Z,12.15
2023-05-12T22:27:57.706Z,11.98
2023-05-12T22:30:24.813Z,12.35
2023-05-12T22:32:52.167Z,11.10
2023-05-12T22:35:19.361Z,11.02
2023-05-12T22:37:46.523Z,10.25
2023-05-12T22:40:13.813Z,10.30
2023-05-12T22:42:41.034Z,9.93
2023-05-12T22:45:09.756Z,10.23
2023-05-12T22:47:37.021Z,8.98
2023-05-12T22:50:04.271Z,9.73
2023-05-12T22:52:31.416Z,9.52
2023-05-12T22:54:58.511Z,9.15
2023-05-12T22:57:25.807Z,8.82
2023-05-12T22:59:52.843Z,9.20
2023-05-12T23:02:19.863Z,8.73
2023-05-12T23:04:46.937Z,9.45
2023-05-12T23:07:13.989Z,9.98
2023-05-12T23:09:41.123Z,9.98
2023-05-12T23:12:08.566Z,9.38
2023-05-12T23:14:35.569Z,9.13
2023-05-12T23:17:02.699Z,9.40
2023-05-12T23:19:29.782Z,9.13
2023-05-12T23:21:56.823Z,10.18
2023-05-12T23:24:23.870Z,9.07
2023-05-12T23:26:50.934Z,9.68
2023-05-12T23:29:17.957Z,9.77
2023-05-12T23:31:45.015Z,9.40
2023-05-12T23:34:12.465Z,9.82
2023-05-12T23:36:39.479Z,9.10
2023-05-12T23:39:06.469Z,9.55
2023-05-12T23:41:36.226Z,9.82
2023-05-12T23:44:03.634Z,10.50
2023-05-12T23:46:30.790Z,10.25
2023-05-12T23:48:58.006Z,9.93
2023-05-12T23:51:25.357Z,10.38
2023-05-12T23:53:52.430Z,10.15
2023-05-12T23:56:19.444Z,10.38
2023-05-12T23:58:47.538Z,10.13
